Terminal Aerodrome Forecast
Issued by NWS

Home | Current Version | Previous Version | Text Only | Print | Product List | Glossary On
Versions: 1 2 3 4 5 6 7 8 9 10 11 12 13 14 15 16 17 18
517
FTUS43 KMQT 231131
TAFIWD
TAF
KIWD 231131Z 2312/2412 00000KT P6SM SCT200
     FM232300 15007KT P6SM VCSH SCT150
     FM240200 17009KT 5SM -SHRA VCTS BKN040CB
     FM240400 18010KT 5SM -SHRA OVC040
     FM240800 19010KT P6SM OVC030
      AMD LTD TO CLD VIS AND WIND=

USA.gov is the U.S. government's official web portal to all federal, state and local government web resources and services.